Time;durP1;ratioP1;P1;durP2;ratioP2;P2;SDS_P1;SDS_P2;PMS_P1;PMS_P2;Temp;Humidity;BMP_temperature;BMP_pressure;BME280_temperature;BME280_humidity;BME280_pressure;Samples;Min_cycle;Max_cycle;Signal;HPM_P1;HPM_P2
2022/12/18 00:01:37;;;;;;;14.67;8.37;;;-5.80;99.90;;;;;;5052918;28;20905;-77
2022/12/18 00:04:33;;;;;;;9.00;8.10;;;-5.80;99.90;;;;;;5053449;28;20437;-78
2022/12/18 00:07:00;;;;;;;17.23;9.43;;;-5.90;99.90;;;;;;5034921;28;20477;-77
2022/12/18 00:09:26;;;;;;;18.70;8.47;;;-6.00;99.90;;;;;;5034556;28;20777;-77
2022/12/18 00:11:51;;;;;;;9.93;6.70;;;-6.00;99.90;;;;;;5033971;28;20414;-77
2022/12/18 00:14:17;;;;;;;16.00;7.90;;;-6.00;99.90;;;;;;5032948;28;20245;-76
2022/12/18 00:16:44;;;;;;;11.40;6.57;;;-6.00;99.90;;;;;;5051854;28;20644;-76
2022/12/18 00:19:13;;;;;;;15.90;7.23;;;-6.00;99.90;;;;;;5056790;28;20250;-77
2022/12/18 00:22:27;;;;;;;12.60;8.10;;;-6.00;99.90;;;;;;5054531;28;20424;-78
2022/12/18 00:24:53;;;;;;;19.83;6.40;;;-6.00;99.90;;;;;;5051160;28;20433;-76
2022/12/18 00:27:18;;;;;;;18.60;7.37;;;-6.10;99.90;;;;;;5052358;28;21029;-77
2022/12/18 00:29:44;;;;;;;10.83;8.47;;;-6.10;99.90;;;;;;5053878;28;20167;-76
2022/12/18 00:32:09;;;;;;;14.03;7.97;;;-6.10;99.90;;;;;;5052860;28;20182;-76
2022/12/18 00:34:35;;;;;;;12.60;7.80;;;-6.10;99.90;;;;;;5050546;28;20191;-78
2022/12/18 00:37:01;;;;;;;12.70;6.43;;;-6.10;99.90;;;;;;5050570;28;20277;-78
2022/12/18 00:39:26;;;;;;;21.27;8.17;;;-6.00;99.90;;;;;;5051998;28;20205;-78
2022/12/18 00:44:37;;;;;;;14.93;7.27;;;-6.00;99.90;;;;;;5040803;28;20217;-78
2022/12/18 00:47:03;;;;;;;13.00;7.40;;;-6.00;99.90;;;;;;5059549;28;20461;-77
2022/12/18 00:49:30;;;;;;;10.43;6.83;;;-5.90;99.90;;;;;;5057842;28;20401;-79
2022/12/18 00:51:58;;;;;;;8.27;5.10;;;-5.90;99.90;;;;;;5041351;28;20185;-78
2022/12/18 00:54:28;;;;;;;12.63;6.50;;;-5.90;99.90;;;;;;5057617;28;20505;-78
2022/12/18 00:56:55;;;;;;;10.13;6.80;;;-6.00;99.90;;;;;;5057131;28;20421;-78
2022/12/18 00:59:21;;;;;;;12.93;6.33;;;-5.90;99.90;;;;;;5057905;28;20933;-78
2022/12/18 01:01:47;;;;;;;13.73;7.00;;;-6.00;99.90;;;;;;5056889;28;20504;-77
2022/12/18 01:04:16;;;;;;;17.70;7.67;;;-6.00;99.90;;;;;;5056824;28;20490;-77
2022/12/18 01:06:42;;;;;;;15.00;5.63;;;-6.10;99.90;;;;;;5056320;28;20539;-76
2022/12/18 01:09:07;;;;;;;18.67;6.50;;;-6.00;99.90;;;;;;5055651;28;20491;-75
2022/12/18 01:11:33;;;;;;;13.20;6.00;;;-6.00;99.90;;;;;;5055419;28;20174;-75
2022/12/18 01:13:58;;;;;;;13.17;6.60;;;-5.90;99.90;;;;;;5054097;28;20333;-75
2022/12/18 01:16:24;;;;;;;18.13;6.47;;;-5.90;99.90;;;;;;5054009;28;20178;-77
2022/12/18 01:18:54;;;;;;;14.27;7.63;;;-5.90;99.90;;;;;;5054206;28;20645;-78
2022/12/18 01:21:21;;;;;;;11.57;6.97;;;-5.80;99.90;;;;;;5055297;28;20171;-76
2022/12/18 01:23:50;;;;;;;12.47;6.30;;;-5.80;99.90;;;;;;5057423;28;20467;-76
2022/12/18 01:26:16;;;;;;;21.40;7.97;;;-5.80;99.90;;;;;;5053728;28;20585;-76
2022/12/18 01:28:43;;;;;;;13.73;6.57;;;-5.80;99.90;;;;;;5066856;28;20412;-76
2022/12/18 01:31:29;;;;;;;19.90;7.97;;;-5.70;99.90;;;;;;5055421;28;20416;-76
2022/12/18 01:33:55;;;;;;;13.50;8.33;;;-5.80;99.90;;;;;;5056717;28;20429;-77
2022/12/18 01:36:29;;;;;;;13.53;7.90;;;-5.70;99.90;;;;;;5055816;28;20802;-79
2022/12/18 01:38:58;;;;;;;13.40;9.03;;;-5.70;99.90;;;;;;5056947;28;20600;-78
2022/12/18 01:42:01;;;;;;;9.83;7.57;;;-5.70;99.90;;;;;;5056949;28;20425;-78
2022/12/18 01:44:48;;;;;;;12.37;5.87;;;-5.70;99.90;;;;;;5054513;28;20521;-78
2022/12/18 01:47:36;;;;;;;15.67;7.50;;;-5.70;99.90;;;;;;5054111;28;20802;-76
2022/12/18 01:50:19;;;;;;;11.67;5.10;;;-5.80;99.90;;;;;;5050601;28;20496;-76
2022/12/18 01:52:55;;;;;;;10.77;6.27;;;-5.90;99.90;;;;;;5054876;28;20393;-78
2022/12/18 01:55:24;;;;;;;15.20;6.47;;;-5.90;99.90;;;;;;5054440;28;20421;-76
2022/12/18 01:57:53;;;;;;;18.97;8.27;;;-6.00;99.90;;;;;;5054036;28;20409;-76
2022/12/18 02:00:27;;;;;;;17.87;5.60;;;-6.00;99.90;;;;;;5054543;28;20397;-76
2022/12/18 02:02:53;;;;;;;15.83;6.20;;;-6.00;99.90;;;;;;5053660;28;20412;-76
2022/12/18 02:05:41;;;;;;;15.50;6.47;;;-6.10;99.90;;;;;;5043596;28;20507;-76
2022/12/18 02:08:06;;;;;;;14.10;6.13;;;-6.10;99.90;;;;;;5033362;28;20168;-76
2022/12/18 02:10:45;;;;;;;13.00;5.63;;;-6.10;99.90;;;;;;5034462;28;20424;-77
2022/12/18 02:13:16;;;;;;;16.50;7.33;;;-6.10;99.90;;;;;;5034565;28;20250;-76
2022/12/18 02:16:15;;;;;;;19.00;7.60;;;-6.10;99.90;;;;;;5034024;28;20957;-76
2022/12/18 02:18:47;;;;;;;11.30;5.53;;;-6.10;99.90;;;;;;5033010;28;20520;-77
2022/12/18 02:21:28;;;;;;;12.50;6.90;;;-6.10;99.90;;;;;;5034187;28;20398;-76
2022/12/18 02:24:13;;;;;;;15.47;7.67;;;-6.10;99.90;;;;;;5034142;28;20422;-76
2022/12/18 02:26:50;;;;;;;11.77;6.97;;;-6.00;99.90;;;;;;5034041;28;20503;-77
2022/12/18 02:29:47;;;;;;;12.60;8.20;;;-6.00;99.90;;;;;;5034439;28;20392;-77
2022/12/18 02:32:17;;;;;;;19.63;8.03;;;-6.00;99.90;;;;;;5026643;28;20418;-77
2022/12/18 02:34:44;;;;;;;10.00;6.23;;;-6.10;99.90;;;;;;5033838;28;20433;-77
2022/12/18 02:37:14;;;;;;;12.93;6.30;;;-6.10;99.90;;;;;;5033995;28;20460;-78
2022/12/18 02:39:43;;;;;;;15.57;7.80;;;-6.20;99.90;;;;;;5052081;28;20416;-78
2022/12/18 02:42:09;;;;;;;11.83;7.83;;;-6.20;99.90;;;;;;5073958;28;20404;-76
2022/12/18 02:44:46;;;;;;;10.00;6.87;;;-6.20;99.90;;;;;;5073371;28;20430;-77
2022/12/18 02:47:13;;;;;;;12.87;6.57;;;-6.20;99.90;;;;;;5073837;28;20443;-76
2022/12/18 02:49:44;;;;;;;28.33;10.30;;;-6.10;99.90;;;;;;5073657;28;20404;-76
2022/12/18 02:52:35;;;;;;;12.13;7.30;;;-6.10;99.90;;;;;;5072476;28;20435;-77
2022/12/18 02:55:28;;;;;;;11.90;6.33;;;-6.10;99.90;;;;;;5073216;28;20451;-77
2022/12/18 02:58:19;;;;;;;21.27;6.27;;;-6.10;99.90;;;;;;5075097;28;20389;-77
2022/12/18 03:00:59;;;;;;;14.10;7.30;;;-6.00;99.90;;;;;;5070348;28;20558;-76
2022/12/18 03:03:33;;;;;;;12.13;8.63;;;-6.10;99.90;;;;;;5075695;28;20931;-77
2022/12/18 03:06:09;;;;;;;24.30;10.57;;;-6.00;99.90;;;;;;5059324;28;20535;-77
2022/12/18 03:08:39;;;;;;;9.90;6.00;;;-5.90;99.90;;;;;;5055958;28;20401;-77
2022/12/18 03:11:05;;;;;;;14.33;8.30;;;-6.00;99.90;;;;;;5057079;28;20394;-77
2022/12/18 03:13:39;;;;;;;10.50;5.93;;;-6.00;99.90;;;;;;5056863;28;20413;-77
2022/12/18 03:16:09;;;;;;;11.13;5.30;;;-6.00;99.90;;;;;;5055659;28;20397;-79
2022/12/18 03:18:49;;;;;;;12.83;6.80;;;-6.00;99.90;;;;;;5053818;28;20499;-78
2022/12/18 03:21:17;;;;;;;14.70;8.77;;;-6.00;99.90;;;;;;5054912;28;20401;-78
2022/12/18 03:23:49;;;;;;;14.63;7.63;;;-6.00;99.90;;;;;;5054121;28;20420;-78
2022/12/18 03:26:19;;;;;;;13.13;6.77;;;-6.00;99.90;;;;;;5054224;28;20444;-78
2022/12/18 03:28:54;;;;;;;13.17;7.20;;;-5.90;99.90;;;;;;5054575;28;20439;-79
2022/12/18 03:31:23;;;;;;;14.63;6.43;;;-5.80;99.90;;;;;;5054825;28;20434;-78
2022/12/18 03:33:55;;;;;;;16.57;9.30;;;-5.80;99.90;;;;;;5054732;28;20479;-78
2022/12/18 03:36:21;;;;;;;20.93;7.03;;;-5.70;99.90;;;;;;5053889;28;20441;-79
2022/12/18 03:38:47;;;;;;;14.07;8.00;;;-5.70;99.90;;;;;;5053318;28;20961;-78
2022/12/18 03:41:26;;;;;;;14.40;7.57;;;-5.70;99.90;;;;;;5053085;28;20413;-79
2022/12/18 03:43:59;;;;;;;14.27;6.40;;;-5.70;99.90;;;;;;5054543;28;20205;-77
2022/12/18 03:46:30;;;;;;;13.60;8.70;;;-5.70;99.90;;;;;;5056200;28;20455;-77
2022/12/18 03:49:03;;;;;;;12.77;6.90;;;-5.70;99.90;;;;;;5055271;28;20467;-77
2022/12/18 03:51:46;;;;;;;21.10;9.10;;;-5.70;99.90;;;;;;5066365;28;20470;-77
2022/12/18 03:54:12;;;;;;;20.27;8.33;;;-5.70;99.90;;;;;;5033941;28;20453;-75
2022/12/18 03:56:48;;;;;;;10.20;6.20;;;-5.70;99.90;;;;;;5031182;28;20417;-75
2022/12/18 03:59:16;;;;;;;14.50;7.90;;;-5.60;99.90;;;;;;5032583;28;20906;-75
2022/12/18 04:01:47;;;;;;;20.83;10.00;;;-5.70;99.90;;;;;;5032489;28;20410;-75
2022/12/18 04:04:15;;;;;;;16.50;7.77;;;-5.70;99.90;;;;;;5031996;28;20517;-75
2022/12/18 04:06:42;;;;;;;14.50;6.43;;;-5.70;99.90;;;;;;5052133;28;20460;-75
2022/12/18 04:09:08;;;;;;;16.83;8.50;;;-5.70;99.90;;;;;;5052251;28;21274;-75
2022/12/18 04:11:33;;;;;;;13.80;6.23;;;-5.80;99.90;;;;;;5052242;28;20397;-77
2022/12/18 04:13:59;;;;;;;11.63;6.17;;;-5.80;99.90;;;;;;5052239;28;20214;-76
2022/12/18 04:16:26;;;;;;;11.77;6.53;;;-5.90;99.90;;;;;;5050899;28;20198;-78
2022/12/18 04:18:52;;;;;;;18.43;7.60;;;-5.90;99.90;;;;;;5052596;28;20805;-78
2022/12/18 04:21:18;;;;;;;15.13;9.37;;;-5.90;99.90;;;;;;5050445;28;20410;-76
2022/12/18 04:23:43;;;;;;;12.00;6.50;;;-5.90;99.90;;;;;;5052007;28;20435;-76
2022/12/18 04:26:09;;;;;;;8.13;6.00;;;-5.90;99.90;;;;;;5051527;28;20202;-76
2022/12/18 04:28:34;;;;;;;19.97;8.13;;;-5.90;99.90;;;;;;5051988;28;20269;-76
2022/12/18 04:31:00;;;;;;;14.67;8.37;;;-5.80;99.90;;;;;;5052004;28;20225;-76
2022/12/18 04:33:25;;;;;;;18.97;6.87;;;-5.80;99.90;;;;;;5051807;28;20195;-76
2022/12/18 04:35:51;;;;;;;16.37;8.47;;;-5.80;99.90;;;;;;5051507;28;20175;-76
2022/12/18 04:38:16;;;;;;;10.93;6.73;;;-5.80;99.90;;;;;;5051816;28;20198;-76
2022/12/18 04:40:42;;;;;;;9.73;7.23;;;-5.90;99.90;;;;;;5050501;28;20178;-76
2022/12/18 04:43:08;;;;;;;11.67;8.03;;;-5.80;99.90;;;;;;5051917;28;20604;-76
2022/12/18 04:45:34;;;;;;;16.07;10.43;;;-5.80;99.90;;;;;;5051437;28;20448;-76
2022/12/18 04:48:00;;;;;;;14.40;6.67;;;-5.90;99.90;;;;;;5052048;28;20228;-78
2022/12/18 04:50:27;;;;;;;16.67;7.00;;;-5.90;99.90;;;;;;5051990;28;20204;-76
2022/12/18 04:52:52;;;;;;;13.87;6.73;;;-5.90;99.90;;;;;;5051904;28;20424;-76
2022/12/18 04:55:19;;;;;;;14.40;6.90;;;-6.00;99.90;;;;;;5052219;28;20425;-77
2022/12/18 04:57:45;;;;;;;13.93;8.00;;;-6.00;99.90;;;;;;5056788;28;20696;-76
2022/12/18 05:00:12;;;;;;;15.80;7.67;;;-6.00;99.90;;;;;;5060040;28;20498;-76
2022/12/18 05:02:38;;;;;;;16.90;9.40;;;-6.10;99.90;;;;;;5051655;28;20254;-77
2022/12/18 05:05:04;;;;;;;12.53;6.60;;;-6.10;99.90;;;;;;5041595;28;20967;-76
2022/12/18 05:07:29;;;;;;;16.70;8.10;;;-6.10;99.90;;;;;;5031694;28;20255;-76
2022/12/18 05:09:55;;;;;;;11.57;8.43;;;-6.10;99.90;;;;;;5031735;28;20469;-78
2022/12/18 05:12:23;;;;;;;17.03;7.80;;;-6.00;99.90;;;;;;5030533;28;20187;-78
2022/12/18 05:14:49;;;;;;;13.60;7.80;;;-6.10;99.90;;;;;;5031536;28;20671;-78
2022/12/18 05:17:14;;;;;;;20.00;6.43;;;-6.10;99.90;;;;;;5031628;28;20409;-76
2022/12/18 05:19:40;;;;;;;20.77;8.80;;;-6.10;99.90;;;;;;5031644;28;20186;-76
2022/12/18 05:22:08;;;;;;;15.03;6.77;;;-6.10;99.90;;;;;;5032375;28;20183;-78
2022/12/18 05:24:37;;;;;;;11.60;6.27;;;-6.00;99.90;;;;;;5031310;28;20200;-77
2022/12/18 05:27:02;;;;;;;14.83;7.47;;;-6.00;99.90;;;;;;5032859;28;20461;-78
2022/12/18 05:29:31;;;;;;;16.73;8.43;;;-6.00;99.90;;;;;;5033988;28;20474;-77
2022/12/18 05:32:11;;;;;;;13.67;9.40;;;-6.00;99.90;;;;;;5035720;28;20683;-76
2022/12/18 05:34:37;;;;;;;15.30;6.73;;;-6.00;99.90;;;;;;5035182;28;20449;-76
2022/12/18 05:37:02;;;;;;;11.93;7.60;;;-6.00;99.90;;;;;;5035048;28;20270;-77
2022/12/18 05:39:28;;;;;;;30.17;8.33;;;-6.00;99.90;;;;;;5033843;28;20172;-76
2022/12/18 05:41:53;;;;;;;13.27;7.50;;;-6.00;99.90;;;;;;5033725;28;20175;-77
2022/12/18 05:44:19;;;;;;;16.20;7.90;;;-6.00;99.90;;;;;;5033546;28;20569;-77
2022/12/18 05:46:44;;;;;;;19.33;7.83;;;-6.00;99.90;;;;;;5035019;28;20207;-78
2022/12/18 05:49:10;;;;;;;15.20;7.73;;;-6.00;99.90;;;;;;5034947;28;20168;-75
2022/12/18 05:51:35;;;;;;;11.20;7.47;;;-5.90;99.90;;;;;;5034927;28;20167;-76
2022/12/18 05:54:01;;;;;;;25.23;8.90;;;-6.00;99.90;;;;;;5034791;28;20191;-76
2022/12/18 05:56:26;;;;;;;11.93;8.03;;;-5.90;99.90;;;;;;5034676;28;20175;-76
2022/12/18 05:58:53;;;;;;;9.60;6.10;;;-5.90;99.90;;;;;;5034952;28;20176;-76
2022/12/18 06:01:23;;;;;;;18.33;8.40;;;-5.90;99.90;;;;;;5033478;28;20171;-76
2022/12/18 06:03:49;;;;;;;12.90;6.10;;;-5.80;99.90;;;;;;5034623;28;20915;-76
2022/12/18 06:06:26;;;;;;;9.47;6.40;;;-5.90;99.90;;;;;;5034033;28;20449;-76
2022/12/18 06:08:55;;;;;;;9.63;6.10;;;-5.90;99.90;;;;;;5040923;28;20174;-76
2022/12/18 06:11:23;;;;;;;17.97;8.07;;;-5.90;99.90;;;;;;5052468;28;20769;-76
2022/12/18 06:13:56;;;;;;;17.27;7.00;;;-6.00;99.90;;;;;;5075666;28;20512;-75
2022/12/18 06:16:21;;;;;;;20.17;7.70;;;-6.00;99.90;;;;;;5074061;28;20492;-76
2022/12/18 06:18:47;;;;;;;13.97;7.80;;;-6.00;99.90;;;;;;5074284;28;20432;-76
2022/12/18 06:21:13;;;;;;;15.13;8.63;;;-6.00;99.90;;;;;;5074162;28;20167;-76
2022/12/18 06:23:39;;;;;;;14.23;7.70;;;-6.00;99.90;;;;;;5074131;28;20216;-76
2022/12/18 06:26:06;;;;;;;16.40;8.40;;;-6.10;99.90;;;;;;5072604;28;20451;-76
2022/12/18 06:28:32;;;;;;;14.83;7.80;;;-6.00;99.90;;;;;;5074210;28;20439;-77
2022/12/18 06:30:57;;;;;;;20.73;10.73;;;-6.10;99.90;;;;;;5074100;28;20400;-75
2022/12/18 06:33:26;;;;;;;16.03;6.33;;;-6.00;99.90;;;;;;5072575;28;20734;-75
2022/12/18 06:35:52;;;;;;;25.50;9.40;;;-5.90;99.90;;;;;;5072741;28;20197;-75
2022/12/18 06:38:17;;;;;;;18.30;8.87;;;-5.90;99.90;;;;;;5072584;28;20455;-75
2022/12/18 06:40:43;;;;;;;18.00;8.40;;;-6.00;99.90;;;;;;5073855;28;20529;-75
2022/12/18 06:43:08;;;;;;;20.87;9.00;;;-5.90;99.90;;;;;;5073667;28;20170;-76
2022/12/18 06:45:34;;;;;;;16.90;8.30;;;-5.90;99.90;;;;;;5073377;28;20198;-75
2022/12/18 06:48:00;;;;;;;23.83;10.30;;;-5.90;99.90;;;;;;5073743;28;20307;-76
2022/12/18 06:50:25;;;;;;;18.50;9.07;;;-5.90;99.90;;;;;;5073538;28;20627;-76
2022/12/18 06:52:51;;;;;;;15.40;8.37;;;-5.90;99.90;;;;;;5072456;28;20529;-76
2022/12/18 06:55:16;;;;;;;13.57;6.30;;;-5.90;99.90;;;;;;5072213;28;20190;-76
2022/12/18 06:57:42;;;;;;;15.70;7.90;;;-5.90;99.90;;;;;;5076030;28;20694;-76
2022/12/18 07:00:08;;;;;;;14.67;7.77;;;-5.90;99.90;;;;;;5073372;28;20620;-76
2022/12/18 07:02:34;;;;;;;25.93;8.60;;;-5.90;99.90;;;;;;5073309;28;20215;-75
2022/12/18 07:05:00;;;;;;;14.03;8.00;;;-5.90;99.90;;;;;;5065061;28;20441;-76
2022/12/18 07:07:25;;;;;;;16.43;7.70;;;-5.90;99.90;;;;;;5052876;28;20402;-77
2022/12/18 07:09:51;;;;;;;21.37;8.90;;;-5.90;99.90;;;;;;5052084;28;20405;-75
2022/12/18 07:12:17;;;;;;;17.87;9.93;;;-5.90;99.90;;;;;;5051909;28;20209;-76
2022/12/18 07:14:42;;;;;;;13.37;7.00;;;-5.90;99.90;;;;;;5052999;28;20241;-76
2022/12/18 07:17:08;;;;;;;13.83;7.73;;;-5.90;99.90;;;;;;5051781;28;20787;-76
2022/12/18 07:19:34;;;;;;;14.20;7.23;;;-5.80;99.90;;;;;;5053013;28;20171;-77
2022/12/18 07:22:00;;;;;;;14.83;7.47;;;-5.80;99.90;;;;;;5065269;28;20256;-76
2022/12/18 07:24:25;;;;;;;17.73;9.20;;;-5.80;99.90;;;;;;5052560;28;20187;-76
2022/12/18 07:26:51;;;;;;;17.87;8.00;;;-5.80;99.90;;;;;;5051423;28;20456;-76
2022/12/18 07:29:17;;;;;;;19.80;9.33;;;-5.80;99.90;;;;;;5052894;28;20258;-76
2022/12/18 07:31:42;;;;;;;14.10;8.20;;;-5.80;99.90;;;;;;5051416;28;20202;-76
2022/12/18 07:34:12;;;;;;;14.40;9.00;;;-5.80;99.90;;;;;;5051489;28;20225;-75
2022/12/18 07:36:38;;;;;;;15.83;7.47;;;-5.80;99.90;;;;;;5051183;28;20191;-76
2022/12/18 07:39:04;;;;;;;10.33;5.50;;;-5.70;99.90;;;;;;5052541;28;20409;-77
2022/12/18 07:41:29;;;;;;;13.80;8.63;;;-5.70;99.90;;;;;;5053809;28;20221;-76
2022/12/18 07:43:55;;;;;;;12.73;7.93;;;-5.60;99.90;;;;;;5054721;28;20190;-77
2022/12/18 07:46:21;;;;;;;15.33;8.23;;;-5.60;99.90;;;;;;5055310;28;20197;-77
2022/12/18 07:48:46;;;;;;;24.83;10.33;;;-5.60;99.90;;;;;;5055580;28;20213;-77
2022/12/18 07:51:12;;;;;;;15.07;9.40;;;-5.60;99.90;;;;;;5055497;28;20405;-76
2022/12/18 07:53:39;;;;;;;9.77;6.70;;;-5.50;99.90;;;;;;5054865;28;20179;-77
2022/12/18 07:56:07;;;;;;;10.87;8.17;;;-5.40;99.90;;;;;;5053410;28;20522;-77
2022/12/18 07:58:34;;;;;;;18.23;7.60;;;-5.30;99.90;;;;;;5054355;28;20421;-77
2022/12/18 08:01:07;;;;;;;16.90;8.97;;;-5.30;99.90;;;;;;5054368;28;20780;-77
2022/12/18 08:03:33;;;;;;;22.60;7.97;;;-5.20;99.90;;;;;;5054605;28;20800;-77
2022/12/18 08:06:01;;;;;;;10.43;7.00;;;-5.10;99.90;;;;;;5037709;28;20445;-76
2022/12/18 08:08:27;;;;;;;17.43;8.10;;;-5.00;99.90;;;;;;5034342;28;20449;-77
2022/12/18 08:10:53;;;;;;;21.73;9.57;;;-4.90;99.90;;;;;;5036755;28;20788;-77
2022/12/18 08:13:18;;;;;;;16.73;9.23;;;-4.60;99.90;;;;;;5035931;28;20407;-78
2022/12/18 08:15:44;;;;;;;14.10;10.00;;;-3.80;99.90;;;;;;5033730;28;20621;-77
2022/12/18 08:18:09;;;;;;;14.83;8.87;;;-3.20;99.90;;;;;;5035395;28;20182;-77
2022/12/18 08:20:35;;;;;;;23.03;10.27;;;-2.40;99.90;;;;;;5033454;28;20199;-77
2022/12/18 08:23:00;;;;;;;20.03;10.00;;;-1.80;99.90;;;;;;5031393;28;20258;-76
2022/12/18 08:25:26;;;;;;;19.20;10.33;;;-1.10;99.90;;;;;;5031836;28;20598;-76
2022/12/18 08:27:52;;;;;;;17.37;9.73;;;-0.40;99.90;;;;;;5031007;28;20171;-76
2022/12/18 08:30:17;;;;;;;19.67;10.03;;;0.20;99.90;;;;;;5031400;28;20630;-76
2022/12/18 08:32:43;;;;;;;14.97;9.43;;;0.60;99.90;;;;;;5049571;28;20184;-76
2022/12/18 08:35:08;;;;;;;15.03;8.87;;;0.90;99.90;;;;;;5066978;28;20193;-76
2022/12/18 08:37:34;;;;;;;15.00;8.83;;;0.90;99.90;;;;;;5073683;28;20266;-76
2022/12/18 08:40:00;;;;;;;14.30;8.33;;;1.20;99.90;;;;;;5072936;28;20170;-76
2022/12/18 08:45:14;;;;;;;10.73;6.33;;;1.20;99.90;;;;;;5062058;28;20219;-76
2022/12/18 08:47:39;;;;;;;15.23;8.80;;;1.20;99.90;;;;;;5071882;28;20409;-76
2022/12/18 08:50:05;;;;;;;20.27;8.53;;;1.20;99.90;;;;;;5073279;28;20174;-76
2022/12/18 08:52:32;;;;;;;13.23;8.27;;;1.60;99.90;;;;;;5071877;28;20531;-77
2022/12/18 08:54:57;;;;;;;12.97;8.67;;;2.10;99.90;;;;;;5072690;28;21053;-77
2022/12/18 08:57:23;;;;;;;14.60;8.47;;;2.50;99.90;;;;;;5072695;28;20415;-76
2022/12/18 08:59:49;;;;;;;13.90;8.33;;;2.60;99.90;;;;;;5073038;28;20170;-76
2022/12/18 09:02:14;;;;;;;18.33;8.97;;;2.80;99.90;;;;;;5072553;28;20219;-76
2022/12/18 09:04:39;;;;;;;14.77;8.30;;;2.90;99.90;;;;;;5065669;28;20286;-76
2022/12/18 09:07:05;;;;;;;12.83;7.97;;;3.10;99.90;;;;;;5052422;28;20230;-76
2022/12/18 09:09:31;;;;;;;12.93;7.70;;;3.20;99.90;;;;;;5056283;28;20250;-76
2022/12/18 09:11:56;;;;;;;14.90;7.97;;;2.80;99.90;;;;;;5055297;28;20185;-76
2022/12/18 09:14:22;;;;;;;14.50;7.20;;;2.50;99.90;;;;;;5054653;28;20214;-76
2022/12/18 09:16:47;;;;;;;12.10;6.77;;;2.00;99.90;;;;;;5055441;28;20209;-75
2022/12/18 09:19:13;;;;;;;13.97;7.87;;;1.80;99.90;;;;;;5055536;28;20167;-76
2022/12/18 09:21:38;;;;;;;12.13;8.13;;;1.60;99.90;;;;;;5054488;28;20181;-76
2022/12/18 09:24:05;;;;;;;11.80;7.20;;;1.50;99.90;;;;;;5054706;28;20534;-76
2022/12/18 09:26:31;;;;;;;12.63;7.67;;;1.60;99.90;;;;;;5055605;28;20191;-76
2022/12/18 09:28:56;;;;;;;13.47;8.73;;;2.00;99.90;;;;;;5054783;28;20415;-76
2022/12/18 09:31:24;;;;;;;13.60;8.47;;;2.50;99.90;;;;;;5055096;28;20181;-76
2022/12/18 09:33:50;;;;;;;11.80;8.60;;;2.80;99.90;;;;;;5055323;28;20178;-76
2022/12/18 09:36:17;;;;;;;13.30;7.30;;;3.20;99.90;;;;;;5053667;28;20451;-76
2022/12/18 09:38:43;;;;;;;15.00;7.10;;;3.40;99.90;;;;;;5055370;28;20703;-77
2022/12/18 09:41:44;;;;;;;15.67;7.60;;;3.30;99.40;;;;;;5066380;28;20495;-77
2022/12/18 09:44:25;;;;;;;16.40;7.50;;;2.80;99.90;;;;;;5053968;28;20201;-77
2022/12/18 09:46:59;;;;;;;10.37;7.43;;;2.40;99.90;;;;;;5055290;28;20447;-77
2022/12/18 09:49:28;;;;;;;17.30;7.97;;;2.20;99.90;;;;;;5056044;28;20406;-77
2022/12/18 09:52:14;;;;;;;13.07;7.00;;;2.20;99.90;;;;;;5056108;28;20409;-77
2022/12/18 09:54:47;;;;;;;12.20;6.80;;;2.40;99.90;;;;;;5053484;28;20562;-77
2022/12/18 09:57:20;;;;;;;13.73;7.83;;;2.30;99.90;;;;;;5053398;28;20462;-76
2022/12/18 09:59:58;;;;;;;12.83;6.73;;;2.10;99.90;;;;;;5051964;28;20519;-77
2022/12/18 10:02:25;;;;;;;18.33;7.43;;;1.80;99.90;;;;;;5052986;28;20415;-76
2022/12/18 10:05:16;;;;;;;15.00;8.30;;;1.70;99.90;;;;;;5046986;28;20427;-77
2022/12/18 10:08:16;;;;;;;9.50;6.27;;;1.80;99.90;;;;;;5031564;28;20494;-77
2022/12/18 10:11:00;;;;;;;12.70;7.10;;;1.80;99.90;;;;;;5035031;28;20391;-76
2022/12/18 10:13:32;;;;;;;9.23;6.67;;;1.90;99.90;;;;;;5034578;28;20401;-76
2022/12/18 10:16:36;;;;;;;12.20;7.53;;;1.80;99.90;;;;;;5034480;28;20429;-76
2022/12/18 10:19:28;;;;;;;14.10;6.13;;;2.00;99.90;;;;;;5011893;28;20410;-76
2022/12/18 10:22:12;;;;;;;14.93;7.47;;;2.20;99.90;;;;;;4997183;28;20407;-76
2022/12/18 10:25:15;;;;;;;12.50;8.40;;;2.50;99.90;;;;;;5030468;28;20576;-77
2022/12/18 10:27:41;;;;;;;14.57;7.60;;;3.00;99.90;;;;;;5033928;28;20418;-76
2022/12/18 10:30:20;;;;;;;12.77;7.80;;;3.10;99.90;;;;;;5035506;28;20402;-77
2022/12/18 10:32:46;;;;;;;12.63;7.50;;;3.30;99.90;;;;;;5034588;28;20694;-77
2022/12/18 10:35:26;;;;;;;12.43;8.10;;;3.50;99.90;;;;;;5035450;28;20429;-77
2022/12/18 10:38:15;;;;;;;15.20;7.50;;;3.60;99.90;;;;;;5035687;28;20186;-77
2022/12/18 10:41:00;;;;;;;11.87;7.93;;;4.00;99.90;;;;;;5033833;28;20942;-77
2022/12/18 10:43:35;;;;;;;15.23;8.20;;;4.10;99.90;;;;;;5033618;28;20410;-77
2022/12/18 10:46:22;;;;;;;13.20;7.70;;;4.10;99.90;;;;;;5034295;28;20461;-77
2022/12/18 10:48:48;;;;;;;12.40;7.13;;;4.10;99.90;;;;;;5033624;28;20435;-76
2022/12/18 10:51:40;;;;;;;12.60;7.17;;;4.10;99.70;;;;;;5054797;28;20859;-77
2022/12/18 10:54:13;;;;;;;14.30;7.90;;;4.00;99.90;;;;;;5033002;28;20214;-77
2022/12/18 10:56:40;;;;;;;13.87;7.30;;;3.80;99.90;;;;;;5033490;28;20406;-78
2022/12/18 10:59:08;;;;;;;14.70;8.10;;;3.70;99.90;;;;;;5037678;28;20894;-77
2022/12/18 11:01:46;;;;;;;13.13;7.87;;;3.40;99.90;;;;;;5037881;28;20445;-75
2022/12/18 11:04:20;;;;;;;9.43;5.90;;;3.10;99.90;;;;;;5033419;28;20448;-77
2022/12/18 11:07:07;;;;;;;16.80;8.87;;;3.10;99.90;;;;;;5053589;28;21051;-77
2022/12/18 11:09:41;;;;;;;12.53;6.80;;;3.10;99.90;;;;;;5052260;28;20425;-76
2022/12/18 11:12:17;;;;;;;16.43;8.10;;;3.20;99.90;;;;;;5052373;28;20412;-76
2022/12/18 11:14:49;;;;;;;15.57;7.53;;;3.00;99.90;;;;;;5051684;28;20437;-76
2022/12/18 11:17:47;;;;;;;10.47;6.60;;;3.00;99.90;;;;;;5052252;28;20410;-77
2022/12/18 11:20:27;;;;;;;14.97;7.83;;;2.90;99.90;;;;;;5052580;28;20417;-77
2022/12/18 11:23:01;;;;;;;15.43;9.00;;;2.70;99.90;;;;;;5052321;28;20416;-76
2022/12/18 11:25:26;;;;;;;11.90;7.43;;;2.40;99.90;;;;;;5051402;28;20491;-76
2022/12/18 11:28:04;;;;;;;13.17;7.50;;;2.30;99.90;;;;;;5052189;28;20414;-76
2022/12/18 11:30:38;;;;;;;12.00;7.07;;;2.30;99.90;;;;;;5052205;28;20181;-76
2022/12/18 11:33:20;;;;;;;14.27;8.33;;;2.30;99.90;;;;;;5054360;28;20406;-77
2022/12/18 11:36:04;;;;;;;14.20;8.30;;;2.10;99.90;;;;;;5053706;28;20405;-77
2022/12/18 11:38:34;;;;;;;12.53;7.27;;;2.00;99.90;;;;;;5052901;28;20478;-77
2022/12/18 11:44:46;;;;;;;13.93;7.67;;;1.80;99.90;;;;;;5052507;28;20443;-77
2022/12/18 11:47:38;;;;;;;15.10;7.20;;;1.60;99.90;;;;;;5045554;28;20555;-77
2022/12/18 11:50:29;;;;;;;16.93;9.47;;;1.40;99.90;;;;;;5053876;28;20421;-77
2022/12/18 11:52:55;;;;;;;19.77;9.53;;;1.30;99.90;;;;;;5053954;28;20405;-78
2022/12/18 11:55:54;;;;;;;16.20;6.90;;;1.10;99.90;;;;;;5052624;28;20435;-78
2022/12/18 11:58:37;;;;;;;12.10;5.93;;;0.90;99.90;;;;;;5051674;28;20179;-76
2022/12/18 12:01:16;;;;;;;16.77;8.53;;;0.70;99.90;;;;;;5052670;28;20458;-77
2022/12/18 12:03:50;;;;;;;14.07;7.00;;;0.60;99.90;;;;;;5067395;28;20451;-78
2022/12/18 12:06:41;;;;;;;16.03;7.50;;;0.50;99.90;;;;;;5054550;28;20457;-78
2022/12/18 12:09:25;;;;;;;16.33;8.53;;;0.40;99.90;;;;;;5052992;28;20401;-78
2022/12/18 12:12:09;;;;;;;15.83;8.90;;;0.30;99.90;;;;;;5051677;28;20409;-77
2022/12/18 12:14:54;;;;;;;14.60;7.27;;;0.30;99.90;;;;;;5052535;28;20428;-78
2022/12/18 12:17:28;;;;;;;22.27;8.60;;;0.20;99.90;;;;;;5052531;28;20883;-78
2022/12/18 12:20:08;;;;;;;13.30;9.77;;;0.20;99.90;;;;;;5052048;28;20415;-77
2022/12/18 12:23:20;;;;;;;15.20;7.80;;;0.20;99.90;;;;;;5053061;28;20404;-78
2022/12/18 12:26:16;;;;;;;19.63;9.60;;;0.10;99.90;;;;;;5042044;28;20543;-77
2022/12/18 12:28:41;;;;;;;12.50;8.00;;;0.10;99.90;;;;;;5053311;28;20382;-77
2022/12/18 12:31:22;;;;;;;14.70;8.00;;;0.10;99.90;;;;;;5052681;28;20398;-77
2022/12/18 12:34:01;;;;;;;17.17;7.60;;;0.00;99.90;;;;;;5052434;28;20191;-77
2022/12/18 12:36:45;;;;;;;14.20;8.67;;;0.00;99.90;;;;;;5053310;28;20431;-78
2022/12/18 12:39:16;;;;;;;20.93;9.47;;;0.10;99.90;;;;;;5052699;28;20440;-78
2022/12/18 12:44:35;;;;;;;15.07;9.33;;;0.00;99.90;;;;;;5056572;28;20804;-77
2022/12/18 12:47:20;;;;;;;18.27;7.43;;;0.10;99.90;;;;;;5055547;28;20484;-77
2022/12/18 12:49:47;;;;;;;13.40;8.63;;;0.00;99.90;;;;;;5056714;28;20410;-78
2022/12/18 12:52:41;;;;;;;17.03;8.97;;;0.00;99.90;;;;;;5056377;28;20458;-78
2022/12/18 12:55:17;;;;;;;22.33;7.70;;;0.00;99.90;;;;;;5055448;28;20429;-77
2022/12/18 12:58:10;;;;;;;17.13;8.27;;;0.10;99.90;;;;;;5055415;28;20468;-77
2022/12/18 13:00:55;;;;;;;15.30;8.23;;;0.20;99.90;;;;;;5055627;28;20402;-77
2022/12/18 13:03:48;;;;;;;11.30;7.77;;;0.20;99.90;;;;;;5055151;28;20413;-77
2022/12/18 13:06:36;;;;;;;16.07;8.97;;;0.20;99.90;;;;;;5037598;28;20476;-77
2022/12/18 13:09:03;;;;;;;13.33;7.57;;;0.20;99.90;;;;;;5036481;28;20884;-78
2022/12/18 13:14:30;;;;;;;12.10;7.63;;;0.20;99.90;;;;;;5056147;28;20432;-77
2022/12/18 13:17:16;;;;;;;13.37;7.57;;;0.30;99.90;;;;;;5056766;28;20409;-77
2022/12/18 13:19:41;;;;;;;17.40;7.60;;;0.30;99.90;;;;;;5056016;28;20921;-78